sensor_id;sensor_type;location;lat;lon;timestamp;P1;durP1;ratioP1;P2;durP2;ratioP2
19163;SDS011;9714;51.208;4.242;2023-01-28T00:00:02;21.03;;;12.03;;
19163;SDS011;9714;51.208;4.242;2023-01-28T00:02:38;18.10;;;11.07;;
19163;SDS011;9714;51.208;4.242;2023-01-28T00:05:05;18.63;;;11.33;;
19163;SDS011;9714;51.208;4.242;2023-01-28T00:07:48;19.17;;;10.80;;
19163;SDS011;9714;51.208;4.242;2023-01-28T00:10:22;18.83;;;10.23;;
19163;SDS011;9714;51.208;4.242;2023-01-28T00:12:49;18.00;;;10.13;;
19163;SDS011;9714;51.208;4.242;2023-01-28T00:15:17;18.77;;;10.83;;
19163;SDS011;9714;51.208;4.242;2023-01-28T00:17:44;15.33;;;9.00;;
19163;SDS011;9714;51.208;4.242;2023-01-28T00:20:11;17.70;;;9.80;;
19163;SDS011;9714;51.208;4.242;2023-01-28T00:25:12;17.20;;;10.17;;
19163;SDS011;9714;51.208;4.242;2023-01-28T00:27:39;15.93;;;9.40;;
19163;SDS011;9714;51.208;4.242;2023-01-28T00:30:06;17.60;;;10.33;;
19163;SDS011;9714;51.208;4.242;2023-01-28T00:32:39;16.67;;;9.93;;
19163;SDS011;9714;51.208;4.242;2023-01-28T00:35:06;19.37;;;10.60;;
19163;SDS011;9714;51.208;4.242;2023-01-28T00:37:35;19.70;;;11.23;;
19163;SDS011;9714;51.208;4.242;2023-01-28T00:40:02;18.43;;;10.20;;
19163;SDS011;9714;51.208;4.242;2023-01-28T00:42:29;18.17;;;10.03;;
19163;SDS011;9714;51.208;4.242;2023-01-28T00:44:56;17.47;;;10.17;;
19163;SDS011;9714;51.208;4.242;2023-01-28T00:47:23;16.60;;;9.27;;
19163;SDS011;9714;51.208;4.242;2023-01-28T00:52:23;15.27;;;8.77;;
19163;SDS011;9714;51.208;4.242;2023-01-28T00:54:50;18.60;;;9.37;;
19163;SDS011;9714;51.208;4.242;2023-01-28T00:57:16;18.93;;;8.70;;
19163;SDS011;9714;51.208;4.242;2023-01-28T00:59:46;13.87;;;7.47;;
19163;SDS011;9714;51.208;4.242;2023-01-28T01:02:15;15.43;;;8.20;;
19163;SDS011;9714;51.208;4.242;2023-01-28T01:04:42;16.60;;;8.30;;
19163;SDS011;9714;51.208;4.242;2023-01-28T01:07:20;14.33;;;7.93;;
19163;SDS011;9714;51.208;4.242;2023-01-28T01:09:58;13.10;;;7.00;;
19163;SDS011;9714;51.208;4.242;2023-01-28T01:12:27;14.60;;;7.73;;
19163;SDS011;9714;51.208;4.242;2023-01-28T01:14:56;13.83;;;7.50;;
19163;SDS011;9714;51.208;4.242;2023-01-28T01:17:23;14.73;;;8.00;;
19163;SDS011;9714;51.208;4.242;2023-01-28T01:19:53;14.00;;;7.37;;
19163;SDS011;9714;51.208;4.242;2023-01-28T01:22:22;12.63;;;6.60;;
19163;SDS011;9714;51.208;4.242;2023-01-28T01:24:49;15.50;;;7.97;;
19163;SDS011;9714;51.208;4.242;2023-01-28T01:27:17;15.67;;;7.83;;
19163;SDS011;9714;51.208;4.242;2023-01-28T01:29:44;13.97;;;7.30;;
19163;SDS011;9714;51.208;4.242;2023-01-28T01:32:11;14.53;;;7.10;;
19163;SDS011;9714;51.208;4.242;2023-01-28T01:34:39;16.97;;;7.40;;
19163;SDS011;9714;51.208;4.242;2023-01-28T01:37:09;12.93;;;6.73;;
19163;SDS011;9714;51.208;4.242;2023-01-28T01:39:39;14.87;;;7.87;;
19163;SDS011;9714;51.208;4.242;2023-01-28T01:42:07;14.23;;;7.73;;
19163;SDS011;9714;51.208;4.242;2023-01-28T01:44:51;15.13;;;7.57;;
19163;SDS011;9714;51.208;4.242;2023-01-28T01:47:21;14.37;;;7.77;;
19163;SDS011;9714;51.208;4.242;2023-01-28T01:49:51;15.00;;;8.00;;
19163;SDS011;9714;51.208;4.242;2023-01-28T01:52:23;13.50;;;7.40;;
19163;SDS011;9714;51.208;4.242;2023-01-28T01:55:01;14.33;;;6.60;;
19163;SDS011;9714;51.208;4.242;2023-01-28T01:57:41;15.20;;;7.70;;
19163;SDS011;9714;51.208;4.242;2023-01-28T02:00:09;14.77;;;7.30;;
19163;SDS011;9714;51.208;4.242;2023-01-28T02:02:39;15.93;;;6.80;;
19163;SDS011;9714;51.208;4.242;2023-01-28T02:05:20;17.57;;;7.57;;
19163;SDS011;9714;51.208;4.242;2023-01-28T02:07:49;13.50;;;6.90;;
19163;SDS011;9714;51.208;4.242;2023-01-28T02:10:20;15.40;;;7.43;;
19163;SDS011;9714;51.208;4.242;2023-01-28T02:12:49;18.90;;;9.00;;
19163;SDS011;9714;51.208;4.242;2023-01-28T02:15:22;14.93;;;7.40;;
19163;SDS011;9714;51.208;4.242;2023-01-28T02:17:51;15.97;;;7.50;;
19163;SDS011;9714;51.208;4.242;2023-01-28T02:20:20;14.57;;;7.87;;
19163;SDS011;9714;51.208;4.242;2023-01-28T02:22:57;18.53;;;8.70;;
19163;SDS011;9714;51.208;4.242;2023-01-28T02:25:46;14.97;;;8.57;;
19163;SDS011;9714;51.208;4.242;2023-01-28T02:28:37;15.70;;;8.23;;
19163;SDS011;9714;51.208;4.242;2023-01-28T02:31:17;15.10;;;8.47;;
19163;SDS011;9714;51.208;4.242;2023-01-28T02:33:55;16.20;;;9.10;;
19163;SDS011;9714;51.208;4.242;2023-01-28T02:36:29;15.23;;;8.97;;
19163;SDS011;9714;51.208;4.242;2023-01-28T02:39:02;15.93;;;8.83;;
19163;SDS011;9714;51.208;4.242;2023-01-28T02:41:35;16.90;;;9.17;;
19163;SDS011;9714;51.208;4.242;2023-01-28T02:44:13;18.43;;;9.43;;
19163;SDS011;9714;51.208;4.242;2023-01-28T02:46:40;15.30;;;8.63;;
19163;SDS011;9714;51.208;4.242;2023-01-28T02:49:27;17.03;;;9.17;;
19163;SDS011;9714;51.208;4.242;2023-01-28T02:52:02;20.23;;;9.23;;
19163;SDS011;9714;51.208;4.242;2023-01-28T02:54:41;17.27;;;9.30;;
19163;SDS011;9714;51.208;4.242;2023-01-28T02:57:20;16.37;;;9.60;;
19163;SDS011;9714;51.208;4.242;2023-01-28T02:59:58;17.30;;;9.87;;
19163;SDS011;9714;51.208;4.242;2023-01-28T03:02:33;15.97;;;8.77;;
19163;SDS011;9714;51.208;4.242;2023-01-28T03:05:10;16.67;;;9.20;;
19163;SDS011;9714;51.208;4.242;2023-01-28T03:13:28;16.00;;;7.80;;
19163;SDS011;9714;51.208;4.242;2023-01-28T03:21:52;13.77;;;7.67;;
19163;SDS011;9714;51.208;4.242;2023-01-28T03:24:41;14.20;;;8.07;;
19163;SDS011;9714;51.208;4.242;2023-01-28T03:27:35;15.90;;;8.83;;
19163;SDS011;9714;51.208;4.242;2023-01-28T03:30:30;14.77;;;8.27;;
19163;SDS011;9714;51.208;4.242;2023-01-28T03:33:22;15.40;;;8.90;;
19163;SDS011;9714;51.208;4.242;2023-01-28T03:36:25;17.20;;;10.43;;
19163;SDS011;9714;51.208;4.242;2023-01-28T03:39:12;20.87;;;11.47;;
19163;SDS011;9714;51.208;4.242;2023-01-28T03:41:39;17.27;;;9.80;;
19163;SDS011;9714;51.208;4.242;2023-01-28T03:44:07;20.00;;;11.63;;
19163;SDS011;9714;51.208;4.242;2023-01-28T03:46:53;17.10;;;10.00;;
19163;SDS011;9714;51.208;4.242;2023-01-28T03:49:28;19.00;;;10.10;;
19163;SDS011;9714;51.208;4.242;2023-01-28T03:51:55;17.87;;;10.57;;
19163;SDS011;9714;51.208;4.242;2023-01-28T03:54:23;20.80;;;11.40;;
19163;SDS011;9714;51.208;4.242;2023-01-28T03:59:19;20.03;;;10.80;;
19163;SDS011;9714;51.208;4.242;2023-01-28T04:01:46;19.30;;;10.87;;
19163;SDS011;9714;51.208;4.242;2023-01-28T04:04:14;18.70;;;11.13;;
19163;SDS011;9714;51.208;4.242;2023-01-28T04:06:48;19.97;;;11.00;;
19163;SDS011;9714;51.208;4.242;2023-01-28T04:09:16;19.63;;;11.20;;
19163;SDS011;9714;51.208;4.242;2023-01-28T04:11:42;18.77;;;10.13;;
19163;SDS011;9714;51.208;4.242;2023-01-28T04:14:09;17.63;;;9.93;;
19163;SDS011;9714;51.208;4.242;2023-01-28T04:16:36;18.40;;;10.33;;
19163;SDS011;9714;51.208;4.242;2023-01-28T04:19:03;18.47;;;10.37;;
19163;SDS011;9714;51.208;4.242;2023-01-28T04:21:30;17.17;;;9.57;;
19163;SDS011;9714;51.208;4.242;2023-01-28T04:23:58;17.00;;;9.53;;
19163;SDS011;9714;51.208;4.242;2023-01-28T04:26:25;16.17;;;8.93;;
19163;SDS011;9714;51.208;4.242;2023-01-28T04:28:52;16.70;;;9.27;;
19163;SDS011;9714;51.208;4.242;2023-01-28T04:31:19;16.37;;;9.17;;
19163;SDS011;9714;51.208;4.242;2023-01-28T04:33:48;17.43;;;8.80;;
19163;SDS011;9714;51.208;4.242;2023-01-28T04:36:16;15.77;;;8.70;;
19163;SDS011;9714;51.208;4.242;2023-01-28T04:38:55;13.93;;;8.23;;
19163;SDS011;9714;51.208;4.242;2023-01-28T04:41:24;15.40;;;8.57;;
19163;SDS011;9714;51.208;4.242;2023-01-28T04:43:52;16.30;;;8.87;;
19163;SDS011;9714;51.208;4.242;2023-01-28T04:46:20;15.23;;;9.20;;
19163;SDS011;9714;51.208;4.242;2023-01-28T04:48:53;16.43;;;9.33;;
19163;SDS011;9714;51.208;4.242;2023-01-28T04:51:20;20.10;;;8.97;;
19163;SDS011;9714;51.208;4.242;2023-01-28T04:53:48;15.00;;;7.73;;
19163;SDS011;9714;51.208;4.242;2023-01-28T04:56:19;16.07;;;8.67;;
19163;SDS011;9714;51.208;4.242;2023-01-28T04:58:47;16.60;;;8.50;;
19163;SDS011;9714;51.208;4.242;2023-01-28T05:01:14;17.33;;;9.87;;
19163;SDS011;9714;51.208;4.242;2023-01-28T05:03:43;17.07;;;8.87;;
19163;SDS011;9714;51.208;4.242;2023-01-28T05:06:11;15.63;;;8.30;;
19163;SDS011;9714;51.208;4.242;2023-01-28T05:08:39;16.07;;;8.93;;
19163;SDS011;9714;51.208;4.242;2023-01-28T05:11:12;16.50;;;9.10;;
19163;SDS011;9714;51.208;4.242;2023-01-28T05:13:39;17.20;;;9.63;;
19163;SDS011;9714;51.208;4.242;2023-01-28T05:16:08;19.60;;;10.33;;
19163;SDS011;9714;51.208;4.242;2023-01-28T05:18:35;15.80;;;8.13;;
19163;SDS011;9714;51.208;4.242;2023-01-28T05:21:02;16.20;;;8.80;;
19163;SDS011;9714;51.208;4.242;2023-01-28T05:23:30;15.47;;;8.73;;
19163;SDS011;9714;51.208;4.242;2023-01-28T05:25:58;15.97;;;9.27;;
19163;SDS011;9714;51.208;4.242;2023-01-28T05:28:25;16.40;;;9.23;;
19163;SDS011;9714;51.208;4.242;2023-01-28T05:30:54;18.57;;;9.47;;
19163;SDS011;9714;51.208;4.242;2023-01-28T05:33:22;16.13;;;9.10;;
19163;SDS011;9714;51.208;4.242;2023-01-28T05:35:49;19.47;;;9.93;;
19163;SDS011;9714;51.208;4.242;2023-01-28T05:38:16;17.70;;;9.80;;
19163;SDS011;9714;51.208;4.242;2023-01-28T05:40:44;18.47;;;10.40;;
19163;SDS011;9714;51.208;4.242;2023-01-28T05:43:13;22.90;;;9.07;;
19163;SDS011;9714;51.208;4.242;2023-01-28T05:45:40;19.30;;;10.23;;
19163;SDS011;9714;51.208;4.242;2023-01-28T05:48:07;16.33;;;9.50;;
19163;SDS011;9714;51.208;4.242;2023-01-28T05:50:35;19.93;;;10.20;;
19163;SDS011;9714;51.208;4.242;2023-01-28T05:53:03;19.40;;;11.10;;
19163;SDS011;9714;51.208;4.242;2023-01-28T05:55:31;20.13;;;11.13;;
19163;SDS011;9714;51.208;4.242;2023-01-28T05:58:00;19.07;;;10.80;;
19163;SDS011;9714;51.208;4.242;2023-01-28T06:00:29;21.00;;;11.97;;
19163;SDS011;9714;51.208;4.242;2023-01-28T06:02:58;20.73;;;11.40;;
19163;SDS011;9714;51.208;4.242;2023-01-28T06:05:25;19.27;;;11.20;;
19163;SDS011;9714;51.208;4.242;2023-01-28T06:07:53;20.90;;;12.00;;
19163;SDS011;9714;51.208;4.242;2023-01-28T06:10:20;19.40;;;10.97;;
19163;SDS011;9714;51.208;4.242;2023-01-28T06:12:47;20.50;;;11.73;;
19163;SDS011;9714;51.208;4.242;2023-01-28T06:15:14;22.17;;;11.93;;
19163;SDS011;9714;51.208;4.242;2023-01-28T06:17:42;21.20;;;11.73;;
19163;SDS011;9714;51.208;4.242;2023-01-28T06:20:10;21.93;;;12.33;;
19163;SDS011;9714;51.208;4.242;2023-01-28T06:22:37;23.93;;;12.33;;
19163;SDS011;9714;51.208;4.242;2023-01-28T06:25:06;23.00;;;11.83;;
19163;SDS011;9714;51.208;4.242;2023-01-28T06:27:34;20.83;;;11.80;;
19163;SDS011;9714;51.208;4.242;2023-01-28T06:30:02;24.40;;;11.33;;
19163;SDS011;9714;51.208;4.242;2023-01-28T06:32:31;20.97;;;11.67;;
19163;SDS011;9714;51.208;4.242;2023-01-28T06:34:58;22.70;;;12.57;;
19163;SDS011;9714;51.208;4.242;2023-01-28T06:37:27;22.20;;;12.10;;
19163;SDS011;9714;51.208;4.242;2023-01-28T06:39:55;25.10;;;12.57;;
19163;SDS011;9714;51.208;4.242;2023-01-28T06:42:23;23.00;;;11.33;;
19163;SDS011;9714;51.208;4.242;2023-01-28T06:44:50;25.37;;;12.80;;
19163;SDS011;9714;51.208;4.242;2023-01-28T06:47:17;22.53;;;12.73;;
19163;SDS011;9714;51.208;4.242;2023-01-28T06:49:44;22.33;;;13.33;;
19163;SDS011;9714;51.208;4.242;2023-01-28T06:52:10;22.37;;;12.73;;
19163;SDS011;9714;51.208;4.242;2023-01-28T06:54:37;23.77;;;13.33;;
19163;SDS011;9714;51.208;4.242;2023-01-28T06:57:04;22.87;;;13.43;;
19163;SDS011;9714;51.208;4.242;2023-01-28T06:59:33;22.47;;;12.53;;
19163;SDS011;9714;51.208;4.242;2023-01-28T07:02:00;25.60;;;12.70;;
19163;SDS011;9714;51.208;4.242;2023-01-28T07:04:26;23.77;;;12.63;;
19163;SDS011;9714;51.208;4.242;2023-01-28T07:06:53;20.50;;;11.93;;
19163;SDS011;9714;51.208;4.242;2023-01-28T07:09:20;23.37;;;12.20;;
19163;SDS011;9714;51.208;4.242;2023-01-28T07:11:47;24.20;;;12.77;;
19163;SDS011;9714;51.208;4.242;2023-01-28T07:14:14;23.43;;;12.83;;
19163;SDS011;9714;51.208;4.242;2023-01-28T07:16:42;23.53;;;12.50;;
19163;SDS011;9714;51.208;4.242;2023-01-28T07:19:09;25.50;;;13.73;;
19163;SDS011;9714;51.208;4.242;2023-01-28T07:21:38;23.53;;;12.90;;
19163;SDS011;9714;51.208;4.242;2023-01-28T07:24:05;22.43;;;12.97;;
19163;SDS011;9714;51.208;4.242;2023-01-28T07:26:33;22.10;;;12.40;;
19163;SDS011;9714;51.208;4.242;2023-01-28T07:29:01;24.77;;;13.50;;
19163;SDS011;9714;51.208;4.242;2023-01-28T07:31:27;22.93;;;12.17;;
19163;SDS011;9714;51.208;4.242;2023-01-28T07:33:56;20.73;;;12.53;;
19163;SDS011;9714;51.208;4.242;2023-01-28T07:36:24;22.27;;;12.07;;
19163;SDS011;9714;51.208;4.242;2023-01-28T07:38:51;23.57;;;12.97;;
19163;SDS011;9714;51.208;4.242;2023-01-28T07:41:17;21.80;;;11.97;;
19163;SDS011;9714;51.208;4.242;2023-01-28T07:43:44;22.83;;;12.57;;
19163;SDS011;9714;51.208;4.242;2023-01-28T07:46:11;22.33;;;12.20;;
19163;SDS011;9714;51.208;4.242;2023-01-28T07:48:38;22.40;;;11.73;;
19163;SDS011;9714;51.208;4.242;2023-01-28T07:51:06;22.27;;;12.87;;
19163;SDS011;9714;51.208;4.242;2023-01-28T07:53:35;27.63;;;13.13;;
19163;SDS011;9714;51.208;4.242;2023-01-28T07:56:02;23.07;;;12.57;;
19163;SDS011;9714;51.208;4.242;2023-01-28T07:58:30;24.10;;;12.40;;
19163;SDS011;9714;51.208;4.242;2023-01-28T08:00:59;21.53;;;11.50;;
19163;SDS011;9714;51.208;4.242;2023-01-28T08:03:27;21.33;;;11.90;;
19163;SDS011;9714;51.208;4.242;2023-01-28T08:05:54;23.03;;;12.63;;
19163;SDS011;9714;51.208;4.242;2023-01-28T08:08:24;23.07;;;12.43;;
19163;SDS011;9714;51.208;4.242;2023-01-28T08:10:52;37.47;;;18.27;;
19163;SDS011;9714;51.208;4.242;2023-01-28T08:13:19;26.67;;;14.80;;
19163;SDS011;9714;51.208;4.242;2023-01-28T08:15:46;22.63;;;13.27;;
19163;SDS011;9714;51.208;4.242;2023-01-28T08:18:14;22.60;;;12.47;;
19163;SDS011;9714;51.208;4.242;2023-01-28T08:20:42;27.27;;;14.03;;
19163;SDS011;9714;51.208;4.242;2023-01-28T08:23:12;24.87;;;13.63;;
19163;SDS011;9714;51.208;4.242;2023-01-28T08:25:42;25.93;;;14.47;;
19163;SDS011;9714;51.208;4.242;2023-01-28T08:28:10;24.67;;;13.83;;
19163;SDS011;9714;51.208;4.242;2023-01-28T08:30:39;24.33;;;13.13;;
19163;SDS011;9714;51.208;4.242;2023-01-28T08:33:08;21.83;;;12.30;;
19163;SDS011;9714;51.208;4.242;2023-01-28T08:35:41;21.63;;;12.67;;
19163;SDS011;9714;51.208;4.242;2023-01-28T08:38:09;21.97;;;12.23;;
19163;SDS011;9714;51.208;4.242;2023-01-28T08:40:38;23.77;;;12.63;;
19163;SDS011;9714;51.208;4.242;2023-01-28T08:43:06;24.53;;;12.70;;
19163;SDS011;9714;51.208;4.242;2023-01-28T08:45:33;21.63;;;12.53;;
19163;SDS011;9714;51.208;4.242;2023-01-28T08:48:01;23.40;;;12.50;;
19163;SDS011;9714;51.208;4.242;2023-01-28T08:50:34;22.17;;;12.07;;
19163;SDS011;9714;51.208;4.242;2023-01-28T08:53:02;22.37;;;11.47;;
19163;SDS011;9714;51.208;4.242;2023-01-28T08:55:31;22.57;;;11.33;;
19163;SDS011;9714;51.208;4.242;2023-01-28T08:58:00;21.70;;;11.17;;
19163;SDS011;9714;51.208;4.242;2023-01-28T09:00:30;23.50;;;11.97;;
19163;SDS011;9714;51.208;4.242;2023-01-28T09:02:58;22.23;;;12.30;;
19163;SDS011;9714;51.208;4.242;2023-01-28T09:05:25;21.40;;;11.53;;
19163;SDS011;9714;51.208;4.242;2023-01-28T09:07:52;22.03;;;11.60;;
19163;SDS011;9714;51.208;4.242;2023-01-28T09:10:20;23.67;;;12.70;;
19163;SDS011;9714;51.208;4.242;2023-01-28T09:12:47;19.53;;;11.17;;
19163;SDS011;9714;51.208;4.242;2023-01-28T09:15:15;20.23;;;10.83;;
19163;SDS011;9714;51.208;4.242;2023-01-28T09:17:45;22.30;;;11.20;;
19163;SDS011;9714;51.208;4.242;2023-01-28T09:20:12;20.80;;;11.40;;
19163;SDS011;9714;51.208;4.242;2023-01-28T09:22:39;23.17;;;12.47;;
19163;SDS011;9714;51.208;4.242;2023-01-28T09:25:07;21.20;;;11.50;;
19163;SDS011;9714;51.208;4.242;2023-01-28T09:27:34;23.07;;;11.63;;
19163;SDS011;9714;51.208;4.242;2023-01-28T09:30:01;20.83;;;11.23;;
19163;SDS011;9714;51.208;4.242;2023-01-28T09:32:30;20.90;;;11.77;;
19163;SDS011;9714;51.208;4.242;2023-01-28T09:35:00;21.60;;;11.70;;
19163;SDS011;9714;51.208;4.242;2023-01-28T09:37:34;22.13;;;11.83;;
19163;SDS011;9714;51.208;4.242;2023-01-28T09:40:08;22.27;;;12.53;;
19163;SDS011;9714;51.208;4.242;2023-01-28T09:45:44;23.30;;;11.77;;
19163;SDS011;9714;51.208;4.242;2023-01-28T09:48:21;24.13;;;11.67;;
19163;SDS011;9714;51.208;4.242;2023-01-28T09:54:28;24.87;;;12.17;;
19163;SDS011;9714;51.208;4.242;2023-01-28T09:57:16;21.03;;;11.73;;
19163;SDS011;9714;51.208;4.242;2023-01-28T09:59:53;25.30;;;12.50;;
19163;SDS011;9714;51.208;4.242;2023-01-28T10:02:31;26.33;;;11.87;;
19163;SDS011;9714;51.208;4.242;2023-01-28T10:05:19;24.63;;;12.00;;
19163;SDS011;9714;51.208;4.242;2023-01-28T10:07:55;21.20;;;12.17;;
19163;SDS011;9714;51.208;4.242;2023-01-28T10:10:41;20.83;;;11.23;;
19163;SDS011;9714;51.208;4.242;2023-01-28T10:13:17;20.60;;;11.73;;
19163;SDS011;9714;51.208;4.242;2023-01-28T10:15:58;19.60;;;10.90;;
19163;SDS011;9714;51.208;4.242;2023-01-28T10:18:43;17.63;;;8.97;;
19163;SDS011;9714;51.208;4.242;2023-01-28T10:21:24;20.63;;;11.03;;
19163;SDS011;9714;51.208;4.242;2023-01-28T10:27:27;21.13;;;11.13;;
19163;SDS011;9714;51.208;4.242;2023-01-28T10:32:51;18.97;;;10.10;;
19163;SDS011;9714;51.208;4.242;2023-01-28T10:43:56;19.53;;;9.80;;
19163;SDS011;9714;51.208;4.242;2023-01-28T10:46:25;18.60;;;10.00;;
19163;SDS011;9714;51.208;4.242;2023-01-28T10:59:01;12.90;;;6.43;;
19163;SDS011;9714;51.208;4.242;2023-01-28T11:23:03;10.97;;;5.17;;
19163;SDS011;9714;51.208;4.242;2023-01-28T11:28:53;12.20;;;5.53;;
19163;SDS011;9714;51.208;4.242;2023-01-28T11:34:52;10.77;;;5.10;;
19163;SDS011;9714;51.208;4.242;2023-01-28T11:37:23;12.00;;;5.37;;
19163;SDS011;9714;51.208;4.242;2023-01-28T11:49:05;12.83;;;6.27;;
19163;SDS011;9714;51.208;4.242;2023-01-28T11:51:45;11.70;;;5.60;;
19163;SDS011;9714;51.208;4.242;2023-01-28T11:54:37;11.07;;;5.53;;
19163;SDS011;9714;51.208;4.242;2023-01-28T12:06:30;17.33;;;8.50;;
19163;SDS011;9714;51.208;4.242;2023-01-28T12:18:18;11.17;;;5.57;;
19163;SDS011;9714;51.208;4.242;2023-01-28T12:20:59;11.87;;;5.37;;
19163;SDS011;9714;51.208;4.242;2023-01-28T12:23:37;13.07;;;5.53;;
19163;SDS011;9714;51.208;4.242;2023-01-28T12:26:18;15.13;;;5.40;;
19163;SDS011;9714;51.208;4.242;2023-01-28T12:29:01;12.33;;;6.00;;
19163;SDS011;9714;51.208;4.242;2023-01-28T12:38:08;11.33;;;5.50;;
19163;SDS011;9714;51.208;4.242;2023-01-28T12:44:08;12.70;;;6.30;;
19163;SDS011;9714;51.208;4.242;2023-01-28T12:49:34;14.50;;;6.83;;
19163;SDS011;9714;51.208;4.242;2023-01-28T12:52:20;14.13;;;5.90;;
19163;SDS011;9714;51.208;4.242;2023-01-28T12:58:00;14.43;;;6.97;;
19163;SDS011;9714;51.208;4.242;2023-01-28T13:07:25;15.40;;;7.20;;
19163;SDS011;9714;51.208;4.242;2023-01-28T13:16:20;15.77;;;7.87;;
19163;SDS011;9714;51.208;4.242;2023-01-28T13:25:46;15.20;;;7.30;;
19163;SDS011;9714;51.208;4.242;2023-01-28T13:28:24;13.87;;;7.83;;
19163;SDS011;9714;51.208;4.242;2023-01-28T13:33:59;19.43;;;8.53;;
19163;SDS011;9714;51.208;4.242;2023-01-28T13:40:07;14.53;;;6.63;;
19163;SDS011;9714;51.208;4.242;2023-01-28T13:45:37;14.43;;;7.17;;
19163;SDS011;9714;51.208;4.242;2023-01-28T13:51:15;15.67;;;8.03;;
19163;SDS011;9714;51.208;4.242;2023-01-28T13:53:53;23.37;;;10.17;;
19163;SDS011;9714;51.208;4.242;2023-01-28T13:56:25;15.50;;;7.73;;
19163;SDS011;9714;51.208;4.242;2023-01-28T14:02:26;16.17;;;6.90;;
19163;SDS011;9714;51.208;4.242;2023-01-28T14:08:31;20.83;;;8.23;;
19163;SDS011;9714;51.208;4.242;2023-01-28T14:14:42;23.10;;;9.77;;
19163;SDS011;9714;51.208;4.242;2023-01-28T14:17:49;28.70;;;11.23;;
19163;SDS011;9714;51.208;4.242;2023-01-28T14:20:21;16.47;;;8.13;;
19163;SDS011;9714;51.208;4.242;2023-01-28T14:22:55;26.43;;;11.70;;
19163;SDS011;9714;51.208;4.242;2023-01-28T14:25:28;25.40;;;11.87;;
19163;SDS011;9714;51.208;4.242;2023-01-28T14:28:03;20.43;;;9.87;;
19163;SDS011;9714;51.208;4.242;2023-01-28T14:30:40;40.67;;;15.30;;
19163;SDS011;9714;51.208;4.242;2023-01-28T14:33:14;20.73;;;8.90;;
19163;SDS011;9714;51.208;4.242;2023-01-28T14:35:48;17.13;;;8.23;;
19163;SDS011;9714;51.208;4.242;2023-01-28T14:38:17;16.40;;;8.77;;
19163;SDS011;9714;51.208;4.242;2023-01-28T14:40:55;18.77;;;8.37;;
19163;SDS011;9714;51.208;4.242;2023-01-28T14:43:29;28.30;;;11.17;;
19163;SDS011;9714;51.208;4.242;2023-01-28T14:49:39;14.83;;;7.10;;
19163;SDS011;9714;51.208;4.242;2023-01-28T14:52:30;17.43;;;8.17;;
19163;SDS011;9714;51.208;4.242;2023-01-28T14:57:55;18.23;;;7.90;;
19163;SDS011;9714;51.208;4.242;2023-01-28T15:00:31;19.53;;;9.43;;
19163;SDS011;9714;51.208;4.242;2023-01-28T15:02:59;17.63;;;8.00;;
19163;SDS011;9714;51.208;4.242;2023-01-28T15:11:48;16.93;;;8.73;;
19163;SDS011;9714;51.208;4.242;2023-01-28T15:14:25;18.57;;;7.63;;
19163;SDS011;9714;51.208;4.242;2023-01-28T15:19:31;28.13;;;11.10;;
19163;SDS011;9714;51.208;4.242;2023-01-28T15:24:53;18.70;;;7.43;;
19163;SDS011;9714;51.208;4.242;2023-01-28T15:27:25;22.77;;;8.47;;
19163;SDS011;9714;51.208;4.242;2023-01-28T15:29:55;41.27;;;13.83;;
19163;SDS011;9714;51.208;4.242;2023-01-28T15:32:25;26.73;;;9.40;;
19163;SDS011;9714;51.208;4.242;2023-01-28T15:34:59;18.33;;;8.57;;
19163;SDS011;9714;51.208;4.242;2023-01-28T15:37:27;32.80;;;11.67;;
19163;SDS011;9714;51.208;4.242;2023-01-28T15:40:00;45.80;;;13.37;;
19163;SDS011;9714;51.208;4.242;2023-01-28T15:42:33;26.93;;;10.53;;
19163;SDS011;9714;51.208;4.242;2023-01-28T15:45:13;35.57;;;13.37;;
19163;SDS011;9714;51.208;4.242;2023-01-28T15:47:42;46.10;;;14.63;;
19163;SDS011;9714;51.208;4.242;2023-01-28T15:50:14;35.27;;;14.70;;
19163;SDS011;9714;51.208;4.242;2023-01-28T15:52:45;25.57;;;9.93;;
19163;SDS011;9714;51.208;4.242;2023-01-28T15:55:30;29.33;;;9.83;;
19163;SDS011;9714;51.208;4.242;2023-01-28T15:58:27;44.27;;;14.80;;
19163;SDS011;9714;51.208;4.242;2023-01-28T16:03:44;31.87;;;12.43;;
19163;SDS011;9714;51.208;4.242;2023-01-28T16:06:19;21.47;;;8.63;;
19163;SDS011;9714;51.208;4.242;2023-01-28T16:08:54;15.77;;;7.57;;
19163;SDS011;9714;51.208;4.242;2023-01-28T16:11:24;18.40;;;7.87;;
19163;SDS011;9714;51.208;4.242;2023-01-28T16:13:55;24.37;;;9.00;;
19163;SDS011;9714;51.208;4.242;2023-01-28T16:16:26;17.17;;;8.93;;
19163;SDS011;9714;51.208;4.242;2023-01-28T16:21:43;20.13;;;9.63;;
19163;SDS011;9714;51.208;4.242;2023-01-28T16:24:19;20.67;;;9.30;;
19163;SDS011;9714;51.208;4.242;2023-01-28T16:30:16;26.60;;;10.43;;
19163;SDS011;9714;51.208;4.242;2023-01-28T16:36:07;110.40;;;25.07;;
19163;SDS011;9714;51.208;4.242;2023-01-28T16:38:39;33.33;;;12.23;;
19163;SDS011;9714;51.208;4.242;2023-01-28T16:41:10;24.77;;;9.47;;
19163;SDS011;9714;51.208;4.242;2023-01-28T16:43:46;20.13;;;9.20;;
19163;SDS011;9714;51.208;4.242;2023-01-28T16:46:19;19.30;;;9.70;;
19163;SDS011;9714;51.208;4.242;2023-01-28T16:49:01;19.07;;;8.47;;
19163;SDS011;9714;51.208;4.242;2023-01-28T16:51:29;26.57;;;12.10;;
19163;SDS011;9714;51.208;4.242;2023-01-28T16:56:54;33.43;;;20.30;;
19163;SDS011;9714;51.208;4.242;2023-01-28T16:59:30;39.13;;;16.40;;
19163;SDS011;9714;51.208;4.242;2023-01-28T17:01:58;41.77;;;35.17;;
19163;SDS011;9714;51.208;4.242;2023-01-28T17:04:25;29.37;;;14.13;;
19163;SDS011;9714;51.208;4.242;2023-01-28T17:06:58;25.23;;;15.27;;
19163;SDS011;9714;51.208;4.242;2023-01-28T17:09:35;26.57;;;14.20;;
19163;SDS011;9714;51.208;4.242;2023-01-28T17:12:03;27.17;;;15.03;;
19163;SDS011;9714;51.208;4.242;2023-01-28T17:14:31;26.27;;;13.70;;
19163;SDS011;9714;51.208;4.242;2023-01-28T17:17:05;32.57;;;17.17;;
19163;SDS011;9714;51.208;4.242;2023-01-28T17:19:34;32.37;;;16.33;;
19163;SDS011;9714;51.208;4.242;2023-01-28T17:22:01;27.30;;;12.23;;
19163;SDS011;9714;51.208;4.242;2023-01-28T17:24:32;20.03;;;11.60;;
19163;SDS011;9714;51.208;4.242;2023-01-28T17:26:59;22.67;;;12.20;;
19163;SDS011;9714;51.208;4.242;2023-01-28T17:29:27;24.67;;;13.37;;
19163;SDS011;9714;51.208;4.242;2023-01-28T17:32:00;30.57;;;17.20;;
19163;SDS011;9714;51.208;4.242;2023-01-28T17:37:23;49.03;;;35.90;;
19163;SDS011;9714;51.208;4.242;2023-01-28T17:39:54;34.30;;;21.87;;
19163;SDS011;9714;51.208;4.242;2023-01-28T17:42:22;30.00;;;18.30;;
19163;SDS011;9714;51.208;4.242;2023-01-28T17:44:51;29.07;;;15.10;;
19163;SDS011;9714;51.208;4.242;2023-01-28T17:47:18;30.20;;;22.13;;
19163;SDS011;9714;51.208;4.242;2023-01-28T17:49:56;44.23;;;32.20;;
19163;SDS011;9714;51.208;4.242;2023-01-28T17:52:23;36.70;;;23.23;;
19163;SDS011;9714;51.208;4.242;2023-01-28T17:54:51;37.93;;;22.50;;
19163;SDS011;9714;51.208;4.242;2023-01-28T17:57:18;46.40;;;21.20;;
19163;SDS011;9714;51.208;4.242;2023-01-28T18:02:47;39.13;;;20.70;;
19163;SDS011;9714;51.208;4.242;2023-01-28T18:05:19;34.80;;;18.23;;
19163;SDS011;9714;51.208;4.242;2023-01-28T18:07:56;35.47;;;18.23;;
19163;SDS011;9714;51.208;4.242;2023-01-28T18:10:34;31.77;;;16.30;;
19163;SDS011;9714;51.208;4.242;2023-01-28T18:15:45;37.50;;;23.47;;
19163;SDS011;9714;51.208;4.242;2023-01-28T18:18:12;37.00;;;18.43;;
19163;SDS011;9714;51.208;4.242;2023-01-28T18:20:42;40.40;;;20.53;;
19163;SDS011;9714;51.208;4.242;2023-01-28T18:23:14;39.77;;;19.57;;
19163;SDS011;9714;51.208;4.242;2023-01-28T18:25:41;39.43;;;18.70;;
19163;SDS011;9714;51.208;4.242;2023-01-28T18:28:10;38.03;;;19.67;;
19163;SDS011;9714;51.208;4.242;2023-01-28T18:30:37;32.33;;;18.93;;
19163;SDS011;9714;51.208;4.242;2023-01-28T18:33:14;30.13;;;16.87;;